createdAt,value
2023-06-22T00:00:22.593Z,100.00
2023-06-22T00:02:52.035Z,100.00
2023-06-22T00:05:21.440Z,100.00
2023-06-22T00:07:50.761Z,100.00
2023-06-22T00:10:20.083Z,100.00
2023-06-22T00:12:49.414Z,100.00
2023-06-22T00:15:18.946Z,100.00
2023-06-22T00:17:48.519Z,100.00
2023-06-22T00:20:19.252Z,100.00
2023-06-22T00:22:49.009Z,100.00
2023-06-22T00:25:18.507Z,100.00
2023-06-22T00:27:47.792Z,100.00
2023-06-22T00:30:19.104Z,100.00
2023-06-22T00:32:48.425Z,100.00
2023-06-22T00:35:18.110Z,100.00
2023-06-22T00:37:47.469Z,100.00
2023-06-22T00:40:18.659Z,100.00
2023-06-22T00:42:47.975Z,100.00
2023-06-22T00:45:17.281Z,100.00
2023-06-22T00:47:46.887Z,100.00
2023-06-22T00:50:19.462Z,100.00
2023-06-22T00:52:49.851Z,100.00
2023-06-22T00:55:20.466Z,100.00
2023-06-22T00:57:50.187Z,100.00
2023-06-22T01:00:21.300Z,100.00
2023-06-22T01:02:52.280Z,100.00
2023-06-22T01:05:23.218Z,100.00
2023-06-22T01:08:15.326Z,100.00
2023-06-22T01:11:00.036Z,100.00
2023-06-22T01:13:40.345Z,100.00
2023-06-22T01:16:15.556Z,100.00
2023-06-22T01:18:45.537Z,100.00
2023-06-22T01:21:18.369Z,100.00
2023-06-22T01:24:06.712Z,100.00
2023-06-22T01:27:03.136Z,100.00
2023-06-22T01:29:33.109Z,100.00
2023-06-22T01:32:07.768Z,100.00
2023-06-22T01:34:38.177Z,100.00
2023-06-22T01:37:08.252Z,100.00
2023-06-22T01:39:37.961Z,100.00
2023-06-22T01:42:07.687Z,100.00
2023-06-22T01:44:37.030Z,100.00
2023-06-22T01:47:07.028Z,100.00
2023-06-22T01:49:38.139Z,100.00
2023-06-22T01:52:08.168Z,100.00
2023-06-22T01:54:38.716Z,100.00
2023-06-22T01:57:08.304Z,100.00
2023-06-22T01:59:56.010Z,100.00
2023-06-22T02:02:27.263Z,100.00
2023-06-22T02:04:59.623Z,100.00
2023-06-22T02:07:33.254Z,100.00
2023-06-22T02:10:05.220Z,100.00
2023-06-22T02:12:35.329Z,100.00
2023-06-22T02:15:05.279Z,100.00
2023-06-22T02:17:35.623Z,100.00
2023-06-22T02:20:10.292Z,100.00
2023-06-22T02:22:39.616Z,100.00
2023-06-22T02:25:09.541Z,100.00
2023-06-22T02:27:40.534Z,100.00
2023-06-22T02:30:13.907Z,100.00
2023-06-22T02:32:43.698Z,100.00
2023-06-22T02:35:13.140Z,100.00
2023-06-22T02:37:43.312Z,100.00
2023-06-22T02:40:13.188Z,100.00
2023-06-22T02:42:42.612Z,100.00
2023-06-22T02:45:12.328Z,100.00
2023-06-22T02:47:41.808Z,100.00
2023-06-22T02:50:11.881Z,100.00
2023-06-22T02:52:41.196Z,100.00
2023-06-22T02:55:12.776Z,100.00
2023-06-22T02:57:44.078Z,100.00
2023-06-22T03:00:16.316Z,100.00
2023-06-22T03:02:47.377Z,100.00
2023-06-22T03:05:19.575Z,100.00
2023-06-22T03:07:49.453Z,100.00
2023-06-22T03:10:18.844Z,100.00
2023-06-22T03:12:49.019Z,100.00
2023-06-22T03:15:18.400Z,100.00
2023-06-22T03:17:48.249Z,100.00
2023-06-22T03:20:17.620Z,100.00
2023-06-22T03:22:46.982Z,100.00
2023-06-22T03:25:18.149Z,100.00
2023-06-22T03:27:49.326Z,100.00
2023-06-22T03:30:21.668Z,100.00
2023-06-22T03:32:51.132Z,100.00
2023-06-22T03:35:20.646Z,100.00
2023-06-22T03:37:50.850Z,100.00
2023-06-22T03:40:20.396Z,100.00
2023-06-22T03:42:50.302Z,100.00
2023-06-22T03:45:19.737Z,100.00
2023-06-22T03:47:49.439Z,100.00
2023-06-22T03:50:20.556Z,100.00
2023-06-22T03:52:49.868Z,100.00
2023-06-22T03:55:19.281Z,100.00
2023-06-22T03:57:48.624Z,100.00
2023-06-22T04:00:18.075Z,100.00
2023-06-22T04:02:47.500Z,100.00
2023-06-22T04:05:18.717Z,100.00
2023-06-22T04:07:48.210Z,100.00
2023-06-22T04:10:18.472Z,100.00
2023-06-22T04:12:47.932Z,100.00
2023-06-22T04:15:17.411Z,100.00
2023-06-22T04:17:46.813Z,100.00
2023-06-22T04:20:16.218Z,100.00
2023-06-22T04:22:46.601Z,100.00
2023-06-22T04:25:16.771Z,100.00
2023-06-22T04:27:46.109Z,100.00
2023-06-22T04:30:17.216Z,100.00
2023-06-22T04:32:47.036Z,100.00
2023-06-22T04:35:16.986Z,100.00
2023-06-22T04:37:47.930Z,100.00
2023-06-22T04:40:17.615Z,100.00
2023-06-22T04:42:48.608Z,100.00
2023-06-22T04:45:17.945Z,100.00
2023-06-22T04:47:47.420Z,100.00
2023-06-22T04:50:18.947Z,100.00
2023-06-22T04:52:48.507Z,100.00
2023-06-22T04:55:19.586Z,100.00
2023-06-22T04:57:50.037Z,100.00
2023-06-22T05:00:21.029Z,100.00
2023-06-22T05:02:50.663Z,100.00
2023-06-22T05:05:20.183Z,100.00
2023-06-22T05:07:51.202Z,100.00
2023-06-22T05:10:20.958Z,100.00
2023-06-22T05:12:50.284Z,100.00
2023-06-22T05:15:24.523Z,100.00
2023-06-22T05:17:53.991Z,100.00
2023-06-22T05:20:23.531Z,100.00
2023-06-22T05:22:52.849Z,100.00
2023-06-22T05:25:22.236Z,100.00
2023-06-22T05:27:53.005Z,100.00
2023-06-22T05:30:22.526Z,100.00
2023-06-22T05:32:53.846Z,100.00
2023-06-22T05:35:23.242Z,100.00
2023-06-22T05:37:53.027Z,100.00
2023-06-22T05:40:22.616Z,100.00
2023-06-22T05:42:52.032Z,100.00
2023-06-22T05:45:21.441Z,100.00
2023-06-22T05:47:50.782Z,100.00
2023-06-22T05:50:20.288Z,99.61
2023-06-22T05:52:49.592Z,98.73
2023-06-22T05:55:19.857Z,96.40
2023-06-22T05:57:49.214Z,94.86
2023-06-22T06:00:19.660Z,95.09
2023-06-22T06:02:50.472Z,94.34
2023-06-22T06:05:20.422Z,95.29
2023-06-22T06:07:49.795Z,93.94
2023-06-22T06:10:19.191Z,92.13
2023-06-22T06:12:48.500Z,93.14
2023-06-22T06:15:18.189Z,93.55
2023-06-22T06:17:49.811Z,93.72
2023-06-22T06:20:21.437Z,94.09
2023-06-22T06:22:51.537Z,96.32
2023-06-22T06:25:22.934Z,95.74
2023-06-22T06:27:54.973Z,96.08
2023-06-22T06:30:24.449Z,96.96
2023-06-22T06:32:53.934Z,97.02
2023-06-22T06:35:23.445Z,96.87
2023-06-22T06:37:53.269Z,96.20
2023-06-22T06:40:22.609Z,96.49
2023-06-22T06:42:51.977Z,95.88
2023-06-22T06:45:24.395Z,95.00
2023-06-22T06:47:54.471Z,94.64
2023-06-22T06:50:24.077Z,92.97
2023-06-22T06:52:53.382Z,91.28
2023-06-22T06:55:25.999Z,88.73
2023-06-22T06:57:55.299Z,88.39
2023-06-22T07:00:24.782Z,87.20
2023-06-22T07:02:54.399Z,86.17
2023-06-22T07:05:23.772Z,86.01
2023-06-22T07:07:54.566Z,86.01
2023-06-22T07:10:23.949Z,83.02
2023-06-22T07:12:53.264Z,84.84
2023-06-22T07:15:22.589Z,81.83
2023-06-22T07:17:52.002Z,81.93
2023-06-22T07:20:21.447Z,82.60
2023-06-22T07:22:50.888Z,83.18
2023-06-22T07:25:20.291Z,84.07
2023-06-22T07:28:00.870Z,84.03
2023-06-22T07:30:30.970Z,84.03
2023-06-22T07:33:02.943Z,83.15
2023-06-22T07:35:32.780Z,83.15
2023-06-22T07:38:05.476Z,84.95
2023-06-22T07:40:34.605Z,82.01
2023-06-22T07:43:04.827Z,83.88
2023-06-22T07:45:36.480Z,85.54
2023-06-22T07:48:05.924Z,85.83
2023-06-22T07:50:35.464Z,84.67
2023-06-22T07:53:04.774Z,80.39
2023-06-22T07:55:34.169Z,79.05
2023-06-22T07:58:03.584Z,81.23
2023-06-22T08:00:34.566Z,81.54
2023-06-22T08:03:05.842Z,81.34
2023-06-22T08:05:35.462Z,78.89
2023-06-22T08:08:05.651Z,79.49
2023-06-22T08:10:35.480Z,81.57
2023-06-22T08:13:04.824Z,80.53
2023-06-22T08:15:34.208Z,81.24
2023-06-22T08:18:03.774Z,81.06
2023-06-22T08:20:33.613Z,78.92
2023-06-22T08:23:04.604Z,79.21
2023-06-22T08:25:35.130Z,79.00
2023-06-22T08:28:05.601Z,77.07
2023-06-22T08:30:35.056Z,78.03
2023-06-22T08:33:04.586Z,77.61
2023-06-22T08:35:34.158Z,78.55
2023-06-22T08:38:03.684Z,78.87
2023-06-22T08:40:33.015Z,78.83
2023-06-22T08:43:02.389Z,78.95
2023-06-22T08:45:32.070Z,78.53
2023-06-22T08:48:02.064Z,79.79
2023-06-22T08:50:31.696Z,78.16
2023-06-22T08:53:01.242Z,79.31
2023-06-22T08:55:30.953Z,79.34
2023-06-22T08:58:00.741Z,80.59
2023-06-22T09:00:31.805Z,81.49
2023-06-22T09:03:01.451Z,83.21
2023-06-22T09:05:31.846Z,83.61
2023-06-22T09:08:01.491Z,82.85
2023-06-22T09:10:31.195Z,80.46
2023-06-22T09:13:01.016Z,78.87
2023-06-22T09:15:30.954Z,79.58
2023-06-22T09:18:00.640Z,79.07
2023-06-22T09:20:30.399Z,79.42
2023-06-22T09:23:00.035Z,79.96
2023-06-22T09:25:29.630Z,80.18
2023-06-22T09:27:59.457Z,80.04
2023-06-22T09:30:29.051Z,79.28
2023-06-22T09:32:58.708Z,80.33
2023-06-22T09:35:28.079Z,81.05
2023-06-22T09:37:57.406Z,80.92
2023-06-22T09:40:27.209Z,79.94
2023-06-22T09:42:56.612Z,79.41
2023-06-22T09:45:26.000Z,79.96
2023-06-22T09:47:55.448Z,80.48
2023-06-22T09:50:25.146Z,79.20
2023-06-22T09:52:56.297Z,80.68
2023-06-22T09:55:26.110Z,80.23
2023-06-22T09:57:56.770Z,81.71
2023-06-22T10:00:28.106Z,82.83
2023-06-22T10:03:01.258Z,82.38
2023-06-22T10:05:29.833Z,82.83
2023-06-22T10:07:59.518Z,83.98
2023-06-22T10:10:28.897Z,83.93
2023-06-22T10:12:59.584Z,84.53
2023-06-22T10:15:29.435Z,84.11
2023-06-22T10:17:59.230Z,82.10
2023-06-22T10:20:29.448Z,82.93
2023-06-22T10:23:00.095Z,81.43
2023-06-22T10:25:30.092Z,82.80
2023-06-22T10:27:59.622Z,82.66
2023-06-22T10:30:30.217Z,82.50
2023-06-22T10:32:59.580Z,82.33
2023-06-22T10:35:29.504Z,80.76
2023-06-22T10:37:59.434Z,82.03
2023-06-22T10:40:28.768Z,81.94
2023-06-22T10:42:58.450Z,79.78
2023-06-22T10:45:29.214Z,80.48
2023-06-22T10:47:59.052Z,81.17
2023-06-22T10:50:28.588Z,80.92
2023-06-22T10:53:00.364Z,80.04
2023-06-22T10:55:34.853Z,80.98
2023-06-22T10:57:59.890Z,82.55
2023-06-22T11:00:29.332Z,82.08
2023-06-22T11:02:59.636Z,81.19
2023-06-22T11:05:29.386Z,82.20
2023-06-22T11:07:58.923Z,83.46
2023-06-22T11:10:28.677Z,83.80
2023-06-22T11:12:59.027Z,86.54
2023-06-22T11:15:28.496Z,92.70
2023-06-22T11:17:58.089Z,92.70
2023-06-22T11:20:27.452Z,93.13
2023-06-22T11:22:57.198Z,96.12
2023-06-22T11:25:26.585Z,98.70
2023-06-22T11:27:56.079Z,98.70
2023-06-22T11:30:25.485Z,100.00
2023-06-22T11:32:54.900Z,100.00
2023-06-22T11:35:24.235Z,100.00
2023-06-22T11:37:53.749Z,100.00
2023-06-22T11:40:27.091Z,100.00
2023-06-22T11:42:56.588Z,100.00
2023-06-22T11:45:25.955Z,100.00
2023-06-22T11:47:55.389Z,100.00
2023-06-22T11:50:25.644Z,100.00
2023-06-22T11:52:54.987Z,100.00
2023-06-22T11:55:24.321Z,100.00
2023-06-22T11:57:59.780Z,100.00
2023-06-22T12:00:30.754Z,100.00
2023-06-22T12:03:01.390Z,100.00
2023-06-22T12:05:31.135Z,100.00
2023-06-22T12:08:00.467Z,100.00
2023-06-22T12:10:33.141Z,100.00
2023-06-22T12:13:02.834Z,100.00
2023-06-22T12:15:32.183Z,100.00
2023-06-22T12:18:02.639Z,100.00
2023-06-22T12:20:32.452Z,100.00
2023-06-22T12:23:02.211Z,100.00
2023-06-22T12:25:31.642Z,100.00
2023-06-22T12:28:00.971Z,100.00
2023-06-22T12:30:30.422Z,100.00
2023-06-22T12:32:59.963Z,100.00
2023-06-22T12:35:29.329Z,100.00
2023-06-22T12:37:58.755Z,100.00
2023-06-22T12:40:28.438Z,100.00
2023-06-22T12:42:58.211Z,100.00
2023-06-22T12:45:29.163Z,100.00
2023-06-22T12:47:58.619Z,100.00
2023-06-22T12:50:28.742Z,100.00
2023-06-22T12:52:59.136Z,100.00
2023-06-22T12:55:29.947Z,100.00
2023-06-22T12:57:59.608Z,100.00
2023-06-22T13:00:29.172Z,100.00
2023-06-22T13:02:58.854Z,100.00
2023-06-22T13:05:28.213Z,100.00
2023-06-22T13:07:57.526Z,100.00
2023-06-22T13:10:26.905Z,100.00
2023-06-22T13:12:57.935Z,100.00
2023-06-22T13:15:27.329Z,100.00
2023-06-22T13:17:57.334Z,100.00
2023-06-22T13:20:26.907Z,100.00
2023-06-22T13:22:57.209Z,100.00
2023-06-22T13:25:28.207Z,100.00
2023-06-22T13:27:57.961Z,100.00
2023-06-22T13:30:27.333Z,100.00
2023-06-22T13:32:57.013Z,100.00
2023-06-22T13:35:26.486Z,100.00
2023-06-22T13:37:55.782Z,100.00
2023-06-22T13:40:25.174Z,100.00
2023-06-22T13:42:56.488Z,100.00
2023-06-22T13:45:25.673Z,100.00
2023-06-22T13:47:55.038Z,100.00
2023-06-22T13:50:24.375Z,100.00
2023-06-22T13:52:53.769Z,100.00
2023-06-22T13:55:24.405Z,100.00
2023-06-22T13:57:53.892Z,100.00
2023-06-22T14:00:23.414Z,100.00
2023-06-22T14:02:52.873Z,100.00
2023-06-22T14:05:22.544Z,100.00
2023-06-22T14:07:51.822Z,100.00
2023-06-22T14:10:21.167Z,100.00
2023-06-22T14:12:50.513Z,100.00
2023-06-22T14:15:19.920Z,100.00
2023-06-22T14:17:49.312Z,100.00
2023-06-22T14:20:18.814Z,100.00
2023-06-22T14:22:48.124Z,100.00
2023-06-22T14:25:17.494Z,100.00
2023-06-22T14:27:46.905Z,100.00
2023-06-22T14:30:16.401Z,100.00
2023-06-22T14:32:46.504Z,100.00
2023-06-22T14:35:15.895Z,100.00
2023-06-22T14:37:45.227Z,100.00
2023-06-22T14:40:14.944Z,100.00
2023-06-22T14:42:44.405Z,100.00
2023-06-22T14:45:15.054Z,100.00
2023-06-22T14:47:44.462Z,100.00
2023-06-22T14:50:13.859Z,100.00
2023-06-22T14:52:44.621Z,100.00
2023-06-22T14:55:14.136Z,100.00
2023-06-22T14:57:43.676Z,100.00
2023-06-22T15:00:13.469Z,100.00
2023-06-22T15:02:43.527Z,100.00
2023-06-22T15:05:13.098Z,100.00
2023-06-22T15:07:43.096Z,100.00
2023-06-22T15:10:12.514Z,100.00
2023-06-22T15:12:41.911Z,100.00
2023-06-22T15:15:12.110Z,100.00
2023-06-22T15:17:41.480Z,100.00
2023-06-22T15:20:12.346Z,100.00
2023-06-22T15:22:41.713Z,100.00
2023-06-22T15:25:11.611Z,100.00
2023-06-22T15:27:43.221Z,100.00
2023-06-22T15:30:13.454Z,100.00
2023-06-22T15:32:50.254Z,100.00
2023-06-22T15:35:19.773Z,100.00
2023-06-22T15:37:49.144Z,100.00
2023-06-22T15:40:18.610Z,100.00
2023-06-22T15:42:50.775Z,100.00
2023-06-22T15:45:19.700Z,100.00
2023-06-22T15:47:49.089Z,100.00
2023-06-22T15:50:18.592Z,100.00
2023-06-22T15:52:49.882Z,100.00
2023-06-22T15:55:20.761Z,100.00
2023-06-22T15:57:50.172Z,100.00
2023-06-22T16:00:20.065Z,100.00
2023-06-22T16:02:49.753Z,100.00
2023-06-22T16:05:19.417Z,100.00
2023-06-22T16:07:48.752Z,100.00
2023-06-22T16:10:19.448Z,100.00
2023-06-22T16:12:52.336Z,100.00
2023-06-22T16:15:21.021Z,100.00
2023-06-22T16:17:50.336Z,100.00
2023-06-22T16:20:21.470Z,100.00
2023-06-22T16:22:51.110Z,100.00
2023-06-22T16:25:20.587Z,100.00
2023-06-22T16:27:49.928Z,100.00
2023-06-22T16:30:19.357Z,100.00
2023-06-22T16:32:55.246Z,100.00
2023-06-22T16:35:24.863Z,100.00
2023-06-22T16:37:57.814Z,100.00
2023-06-22T16:40:27.644Z,100.00
2023-06-22T16:42:57.340Z,100.00
2023-06-22T16:45:26.828Z,100.00
2023-06-22T16:47:56.532Z,100.00
2023-06-22T16:50:26.274Z,100.00
2023-06-22T16:52:55.623Z,100.00
2023-06-22T16:55:27.625Z,100.00
2023-06-22T16:57:57.528Z,100.00
2023-06-22T17:00:26.897Z,100.00
2023-06-22T17:02:57.830Z,100.00
2023-06-22T17:05:29.126Z,100.00
2023-06-22T17:08:00.476Z,100.00
2023-06-22T17:10:30.198Z,100.00
2023-06-22T17:12:59.949Z,100.00
2023-06-22T17:15:31.642Z,100.00
2023-06-22T17:18:01.479Z,100.00
2023-06-22T17:20:31.098Z,100.00
2023-06-22T17:23:00.920Z,100.00
2023-06-22T17:25:31.445Z,100.00
2023-06-22T17:28:02.134Z,100.00
2023-06-22T17:30:32.314Z,100.00
2023-06-22T17:33:02.256Z,100.00
2023-06-22T17:35:34.798Z,100.00
2023-06-22T17:38:04.099Z,100.00
2023-06-22T17:40:35.441Z,100.00
2023-06-22T17:43:07.402Z,100.00
2023-06-22T17:45:44.119Z,100.00
2023-06-22T17:48:15.658Z,100.00
2023-06-22T17:50:45.065Z,100.00
2023-06-22T17:53:15.018Z,100.00
2023-06-22T17:55:44.460Z,100.00
2023-06-22T17:58:14.963Z,100.00
2023-06-22T18:00:44.667Z,100.00
2023-06-22T18:03:15.821Z,100.00
2023-06-22T18:05:49.473Z,100.00
2023-06-22T18:08:22.249Z,100.00
2023-06-22T18:10:51.861Z,100.00
2023-06-22T18:13:21.686Z,100.00
2023-06-22T18:15:52.410Z,100.00
2023-06-22T18:18:24.862Z,100.00
2023-06-22T18:20:54.668Z,100.00
2023-06-22T18:23:24.294Z,100.00
2023-06-22T18:25:53.662Z,100.00
2023-06-22T18:28:23.451Z,100.00
2023-06-22T18:30:52.858Z,100.00
2023-06-22T18:33:22.244Z,100.00
2023-06-22T18:35:52.690Z,100.00
2023-06-22T18:38:22.471Z,100.00
2023-06-22T18:40:54.798Z,100.00
2023-06-22T18:43:25.071Z,100.00
2023-06-22T18:45:54.587Z,100.00
2023-06-22T18:48:26.788Z,100.00
2023-06-22T18:50:57.746Z,100.00
2023-06-22T18:53:29.391Z,100.00
2023-06-22T18:56:16.928Z,100.00
2023-06-22T18:58:46.307Z,100.00
2023-06-22T19:01:20.435Z,100.00
2023-06-22T19:03:52.970Z,100.00
2023-06-22T19:06:39.739Z,100.00
2023-06-22T19:09:18.905Z,100.00
2023-06-22T19:11:49.154Z,100.00
2023-06-22T19:14:22.509Z,100.00
2023-06-22T19:16:59.787Z,100.00
2023-06-22T19:19:29.254Z,100.00
2023-06-22T19:22:02.261Z,100.00
2023-06-22T19:24:33.432Z,100.00
2023-06-22T19:27:03.246Z,100.00
2023-06-22T19:29:32.761Z,100.00
2023-06-22T19:32:02.454Z,100.00
2023-06-22T19:34:35.015Z,100.00
2023-06-22T19:37:04.491Z,100.00
2023-06-22T19:39:40.105Z,100.00
2023-06-22T19:42:10.571Z,100.00
2023-06-22T19:44:39.888Z,100.00
2023-06-22T19:47:09.822Z,100.00
2023-06-22T19:49:39.203Z,100.00
2023-06-22T19:52:09.729Z,100.00
2023-06-22T19:54:41.663Z,100.00
2023-06-22T19:57:11.200Z,100.00
2023-06-22T19:59:41.647Z,100.00
2023-06-22T20:02:11.403Z,100.00
2023-06-22T20:04:41.045Z,100.00
2023-06-22T20:07:10.556Z,100.00
2023-06-22T20:09:41.644Z,100.00
2023-06-22T20:12:13.288Z,100.00
2023-06-22T20:14:42.628Z,100.00
2023-06-22T20:17:15.179Z,100.00
2023-06-22T20:19:47.258Z,100.00
2023-06-22T20:22:16.675Z,100.00
2023-06-22T20:24:47.671Z,100.00
2023-06-22T20:27:17.041Z,100.00
2023-06-22T20:29:46.390Z,100.00
2023-06-22T20:32:16.402Z,100.00
2023-06-22T20:34:49.625Z,100.00
2023-06-22T20:37:20.237Z,100.00
2023-06-22T20:39:50.306Z,100.00
2023-06-22T20:42:19.868Z,100.00
2023-06-22T20:44:52.177Z,100.00
2023-06-22T20:47:22.696Z,100.00
2023-06-22T20:49:52.432Z,100.00
2023-06-22T20:52:21.837Z,100.00
2023-06-22T20:54:51.697Z,100.00
2023-06-22T20:57:21.676Z,100.00
2023-06-22T20:59:51.023Z,100.00
2023-06-22T21:02:21.469Z,100.00
2023-06-22T21:04:50.866Z,100.00
2023-06-22T21:07:20.218Z,100.00
2023-06-22T21:09:51.957Z,100.00
2023-06-22T21:12:21.458Z,100.00
2023-06-22T21:14:51.481Z,100.00
2023-06-22T21:17:21.033Z,100.00
2023-06-22T21:19:50.635Z,100.00
2023-06-22T21:22:21.475Z,100.00
2023-06-22T21:25:06.508Z,100.00
2023-06-22T21:27:39.635Z,100.00
2023-06-22T21:30:10.996Z,100.00
2023-06-22T21:32:42.219Z,100.00
2023-06-22T21:35:12.236Z,100.00
2023-06-22T21:37:44.705Z,100.00
2023-06-22T21:40:14.389Z,100.00
2023-06-22T21:42:43.764Z,100.00
2023-06-22T21:45:13.076Z,100.00
2023-06-22T21:47:42.495Z,100.00
2023-06-22T21:50:12.294Z,100.00
2023-06-22T21:52:41.749Z,100.00
2023-06-22T21:55:11.295Z,100.00
2023-06-22T21:57:40.606Z,100.00
2023-06-22T22:00:12.431Z,100.00
2023-06-22T22:02:41.340Z,100.00
2023-06-22T22:05:11.127Z,100.00
2023-06-22T22:07:40.441Z,100.00
2023-06-22T22:10:10.735Z,100.00
2023-06-22T22:12:40.193Z,100.00
2023-06-22T22:15:10.120Z,100.00
2023-06-22T22:17:39.453Z,100.00
2023-06-22T22:20:10.397Z,100.00
2023-06-22T22:22:39.692Z,100.00
2023-06-22T22:25:09.801Z,100.00
2023-06-22T22:27:39.089Z,100.00
2023-06-22T22:30:09.716Z,100.00
2023-06-22T22:32:39.120Z,100.00
2023-06-22T22:35:09.122Z,100.00
2023-06-22T22:37:38.712Z,100.00
2023-06-22T22:40:11.853Z,100.00
2023-06-22T22:42:41.721Z,100.00
2023-06-22T22:45:11.985Z,100.00
2023-06-22T22:47:41.340Z,100.00
2023-06-22T22:50:10.935Z,100.00
2023-06-22T22:52:40.323Z,100.00
2023-06-22T22:55:10.301Z,100.00
2023-06-22T22:57:39.711Z,100.00
2023-06-22T23:00:14.537Z,100.00
2023-06-22T23:02:45.376Z,100.00
2023-06-22T23:05:15.389Z,100.00
2023-06-22T23:07:44.719Z,100.00
2023-06-22T23:10:14.131Z,100.00
2023-06-22T23:12:45.425Z,100.00
2023-06-22T23:15:15.325Z,100.00
2023-06-22T23:17:46.758Z,100.00
2023-06-22T23:20:18.959Z,100.00
2023-06-22T23:22:50.272Z,100.00
2023-06-22T23:25:19.732Z,100.00
2023-06-22T23:27:49.622Z,100.00
2023-06-22T23:30:19.031Z,100.00
2023-06-22T23:32:48.433Z,100.00
2023-06-22T23:35:18.170Z,100.00
2023-06-22T23:37:48.329Z,100.00
2023-06-22T23:40:18.235Z,100.00
2023-06-22T23:42:50.995Z,100.00
2023-06-22T23:45:28.517Z,100.00
2023-06-22T23:47:52.125Z,100.00
2023-06-22T23:50:21.460Z,100.00
2023-06-22T23:52:51.044Z,100.00
2023-06-22T23:55:23.281Z,100.00
2023-06-22T23:57:58.453Z,100.00
